createdAt,value
2019-05-09T00:00:09.469Z,12.40
2019-05-09T00:02:39.722Z,12.30
2019-05-09T00:05:09.664Z,12.40
2019-05-09T00:07:39.299Z,12.50
2019-05-09T00:10:09.579Z,12.50
2019-05-09T00:12:39.179Z,12.40
2019-05-09T00:15:08.955Z,12.40
2019-05-09T00:17:38.499Z,12.50
2019-05-09T00:20:17.151Z,12.50
2019-05-09T00:22:46.764Z,12.50
2019-05-09T00:25:16.379Z,12.40
2019-05-09T00:27:59.415Z,12.50
2019-05-09T00:30:39.303Z,12.50
2019-05-09T00:33:08.952Z,12.50
2019-05-09T00:35:38.661Z,12.60
2019-05-09T00:38:08.131Z,12.60
2019-05-09T00:40:37.670Z,12.60
2019-05-09T00:43:07.143Z,12.60
2019-05-09T00:45:55.455Z,12.60
2019-05-09T00:48:26.560Z,12.60
2019-05-09T00:50:56.067Z,12.50
2019-05-09T00:53:25.731Z,12.40
2019-05-09T00:55:55.315Z,12.50
2019-05-09T00:58:24.853Z,12.50
2019-05-09T01:00:54.426Z,12.50
2019-05-09T01:03:23.899Z,12.60
2019-05-09T01:05:54.271Z,12.60
2019-05-09T01:08:24.243Z,12.60
2019-05-09T01:11:08.233Z,12.60
2019-05-09T01:13:24.998Z,12.50
2019-05-09T01:15:54.576Z,12.60
2019-05-09T01:18:24.653Z,12.50
2019-05-09T01:20:54.155Z,12.50
2019-05-09T01:23:23.758Z,12.50
2019-05-09T01:25:53.291Z,12.50
2019-05-09T01:28:24.032Z,12.50
2019-05-09T01:30:53.977Z,12.30
2019-05-09T01:33:25.244Z,12.30
2019-05-09T01:35:54.967Z,12.50
2019-05-09T01:38:24.509Z,12.40
2019-05-09T01:40:53.938Z,12.40
2019-05-09T01:43:24.422Z,12.50
2019-05-09T01:45:54.183Z,12.40
2019-05-09T01:48:23.843Z,12.40
2019-05-09T01:50:53.820Z,12.40
2019-05-09T01:53:25.118Z,12.40
2019-05-09T01:55:58.089Z,12.50
2019-05-09T01:58:29.504Z,12.50
2019-05-09T02:00:59.783Z,12.50
2019-05-09T02:03:29.368Z,12.50
2019-05-09T02:05:58.840Z,12.50
2019-05-09T02:08:28.413Z,12.40
2019-05-09T02:10:58.031Z,12.40
2019-05-09T02:13:27.511Z,12.50
2019-05-09T02:16:04.496Z,12.50
2019-05-09T02:18:35.671Z,12.40
2019-05-09T02:21:05.371Z,12.40
2019-05-09T02:23:34.903Z,12.50
2019-05-09T02:26:05.584Z,12.50
2019-05-09T02:28:35.064Z,12.30
2019-05-09T02:31:05.477Z,12.30
2019-05-09T02:33:36.082Z,12.20
2019-05-09T02:36:09.528Z,12.20
2019-05-09T02:38:39.213Z,12.30
2019-05-09T02:41:09.128Z,12.40
2019-05-09T02:43:39.086Z,12.50
2019-05-09T02:46:18.817Z,12.50
2019-05-09T02:48:49.699Z,12.60
2019-05-09T02:51:19.667Z,12.50
2019-05-09T02:53:50.072Z,12.40
2019-05-09T02:56:19.545Z,12.40
2019-05-09T02:58:50.746Z,12.50
2019-05-09T03:01:29.421Z,12.50
2019-05-09T03:03:59.181Z,12.40
2019-05-09T03:06:29.226Z,12.30
2019-05-09T03:08:59.501Z,12.30
2019-05-09T03:11:29.303Z,12.40
2019-05-09T03:13:58.904Z,12.50
2019-05-09T03:16:29.482Z,12.40
2019-05-09T03:19:00.016Z,12.40
2019-05-09T03:21:39.880Z,12.50
2019-05-09T03:24:10.114Z,12.50
2019-05-09T03:26:41.431Z,12.30
2019-05-09T03:29:12.692Z,12.30
2019-05-09T03:31:43.663Z,12.40
2019-05-09T03:34:13.199Z,12.40
2019-05-09T03:36:42.771Z,12.40
2019-05-09T03:39:12.378Z,12.40
2019-05-09T03:41:41.984Z,12.50
2019-05-09T03:44:11.686Z,12.40
2019-05-09T03:46:42.856Z,12.40
2019-05-09T03:49:13.997Z,12.50
2019-05-09T03:51:43.543Z,12.40
2019-05-09T03:54:13.135Z,12.40
2019-05-09T03:56:44.354Z,12.40
2019-05-09T03:59:13.863Z,12.50
2019-05-09T04:01:46.739Z,12.40
2019-05-09T04:04:14.548Z,12.50
2019-05-09T04:06:44.119Z,12.40
2019-05-09T04:09:13.751Z,12.40
2019-05-09T04:11:43.187Z,12.30
2019-05-09T04:14:14.439Z,12.30
2019-05-09T04:16:43.946Z,12.30
2019-05-09T04:19:13.555Z,12.30
2019-05-09T04:21:43.119Z,12.40
2019-05-09T04:24:12.659Z,12.30
2019-05-09T04:26:52.803Z,12.20
2019-05-09T04:29:22.498Z,12.20
2019-05-09T04:31:52.034Z,12.20
2019-05-09T04:34:21.502Z,12.30
2019-05-09T04:36:51.155Z,12.20
2019-05-09T04:39:23.737Z,12.20
2019-05-09T04:41:55.009Z,12.30
2019-05-09T04:44:24.611Z,12.30
2019-05-09T04:46:58.991Z,12.30
2019-05-09T04:49:29.712Z,12.40
2019-05-09T04:51:58.333Z,12.40
2019-05-09T04:54:28.089Z,12.40
2019-05-09T04:56:58.119Z,12.30
2019-05-09T04:59:40.609Z,12.30
2019-05-09T05:02:23.888Z,12.40
2019-05-09T05:04:53.324Z,12.40
2019-05-09T05:07:22.943Z,12.40
2019-05-09T05:09:52.383Z,12.40
2019-05-09T05:12:22.004Z,12.40
2019-05-09T05:14:51.585Z,12.40
2019-05-09T05:17:21.046Z,12.40
2019-05-09T05:19:51.187Z,12.40
2019-05-09T05:22:38.697Z,12.50
2019-05-09T05:25:09.392Z,12.40
2019-05-09T05:27:38.958Z,12.30
2019-05-09T05:30:09.873Z,12.50
2019-05-09T05:32:40.944Z,12.40
2019-05-09T05:35:12.495Z,12.20
2019-05-09T05:37:42.039Z,12.30
2019-05-09T05:40:11.642Z,12.30
2019-05-09T05:42:41.261Z,12.30
2019-05-09T05:45:10.924Z,12.30
2019-05-09T05:47:44.789Z,12.30
2019-05-09T05:50:14.359Z,12.20
2019-05-09T05:52:44.035Z,12.40
2019-05-09T05:55:13.708Z,12.50
2019-05-09T05:57:43.242Z,12.60
2019-05-09T06:00:14.923Z,12.50
2019-05-09T06:02:44.463Z,12.50
2019-05-09T06:05:14.240Z,13.20
2019-05-09T06:07:43.780Z,12.90
2019-05-09T06:10:13.687Z,12.70
2019-05-09T06:12:43.295Z,12.60
2019-05-09T06:15:13.611Z,12.60
2019-05-09T06:17:43.127Z,12.80
2019-05-09T06:20:13.035Z,12.80
2019-05-09T06:22:42.580Z,12.50
2019-05-09T06:25:12.192Z,12.30
2019-05-09T06:27:42.417Z,12.40
2019-05-09T06:30:17.446Z,12.50
2019-05-09T06:32:47.714Z,12.60
2019-05-09T06:35:20.479Z,12.60
2019-05-09T06:37:49.963Z,12.70
2019-05-09T06:40:23.751Z,12.80
2019-05-09T06:42:53.943Z,12.70
2019-05-09T06:45:44.908Z,12.70
2019-05-09T06:48:17.961Z,12.80
2019-05-09T06:50:48.332Z,12.80
2019-05-09T06:53:18.245Z,12.90
2019-05-09T06:55:47.771Z,12.90
2019-05-09T06:58:35.068Z,12.90
2019-05-09T07:01:12.579Z,12.90
2019-05-09T07:03:59.923Z,12.70
2019-05-09T07:06:48.296Z,12.70
2019-05-09T07:09:19.813Z,12.60
2019-05-09T07:11:49.513Z,12.70
2019-05-09T07:14:32.567Z,12.70
2019-05-09T07:17:00.648Z,12.70
2019-05-09T07:19:30.194Z,12.70
2019-05-09T07:22:01.820Z,12.80
2019-05-09T07:24:34.328Z,12.90
2019-05-09T07:27:03.903Z,13.00
2019-05-09T07:29:37.595Z,13.10
2019-05-09T07:32:11.403Z,13.10
2019-05-09T07:34:42.759Z,13.00
2019-05-09T07:37:12.331Z,12.90
2019-05-09T07:39:43.204Z,13.00
2019-05-09T07:42:12.827Z,13.00
2019-05-09T07:44:48.706Z,13.00
2019-05-09T07:47:13.629Z,12.90
2019-05-09T07:49:43.236Z,12.90
2019-05-09T07:52:12.808Z,12.90
2019-05-09T07:54:42.356Z,12.90
2019-05-09T07:57:11.859Z,12.90
2019-05-09T07:59:41.396Z,12.90
2019-05-09T08:02:10.908Z,12.80
2019-05-09T08:04:40.452Z,12.90
2019-05-09T08:07:09.887Z,13.00
2019-05-09T08:09:39.508Z,13.10
2019-05-09T08:12:09.018Z,13.10
2019-05-09T08:14:38.547Z,13.20
2019-05-09T08:17:08.693Z,13.30
2019-05-09T08:19:38.604Z,13.30
2019-05-09T08:22:08.209Z,13.20
2019-05-09T08:24:38.138Z,13.30
2019-05-09T08:27:08.690Z,13.20
2019-05-09T08:29:38.846Z,13.50
2019-05-09T08:32:08.461Z,13.50
2019-05-09T08:34:37.998Z,13.50
2019-05-09T08:37:08.233Z,13.40
2019-05-09T08:39:38.406Z,13.20
2019-05-09T08:42:08.891Z,13.10
2019-05-09T08:44:41.983Z,13.10
2019-05-09T08:47:09.888Z,13.20
2019-05-09T08:49:49.441Z,13.10
2019-05-09T08:52:19.787Z,13.20
2019-05-09T08:54:54.167Z,13.20
2019-05-09T08:57:23.744Z,13.00
2019-05-09T08:59:53.380Z,13.20
2019-05-09T09:02:22.953Z,13.30
2019-05-09T09:04:52.540Z,13.40
2019-05-09T09:07:22.187Z,13.40
2019-05-09T09:09:51.691Z,13.50
2019-05-09T09:12:30.454Z,13.60
2019-05-09T09:14:53.435Z,13.60
2019-05-09T09:17:22.978Z,13.70
2019-05-09T09:19:52.753Z,15.00
2019-05-09T09:22:22.359Z,15.00
2019-05-09T09:24:51.870Z,14.60
2019-05-09T09:27:21.421Z,14.40
2019-05-09T09:29:51.002Z,14.60
2019-05-09T09:32:20.545Z,14.70
2019-05-09T09:34:50.164Z,14.60
2019-05-09T09:37:19.632Z,14.50
2019-05-09T09:39:49.272Z,14.50
2019-05-09T09:42:19.921Z,14.60
2019-05-09T09:44:50.229Z,14.70
2019-05-09T09:47:23.244Z,14.70
2019-05-09T09:49:51.137Z,14.70
2019-05-09T09:52:21.011Z,14.60
2019-05-09T09:54:50.484Z,14.50
2019-05-09T09:57:19.933Z,14.60
2019-05-09T09:59:51.138Z,14.80
2019-05-09T10:02:22.339Z,15.00
2019-05-09T10:04:51.852Z,15.10
2019-05-09T10:07:21.740Z,15.50
2019-05-09T10:09:51.383Z,15.90
2019-05-09T10:12:21.331Z,16.10
2019-05-09T10:14:58.544Z,16.10
2019-05-09T10:17:38.765Z,16.00
2019-05-09T10:20:18.199Z,15.90
2019-05-09T10:22:58.695Z,15.70
2019-05-09T10:25:19.039Z,15.70
2019-05-09T10:27:49.915Z,15.60
2019-05-09T10:30:22.911Z,15.70
2019-05-09T10:32:53.139Z,15.70
2019-05-09T10:35:23.615Z,15.90
2019-05-09T10:37:53.154Z,16.20
2019-05-09T10:40:23.331Z,16.30
2019-05-09T10:42:58.907Z,16.30
2019-05-09T10:45:30.496Z,16.30
2019-05-09T10:48:00.111Z,16.20
2019-05-09T10:50:34.034Z,16.30
2019-05-09T10:53:00.912Z,16.50
2019-05-09T10:55:30.430Z,16.80
2019-05-09T10:58:02.508Z,16.80
2019-05-09T11:00:32.401Z,16.80
2019-05-09T11:03:01.891Z,16.90
2019-05-09T11:05:31.506Z,16.80
2019-05-09T11:08:01.087Z,16.60
2019-05-09T11:10:32.772Z,16.70
2019-05-09T11:13:01.848Z,16.70
2019-05-09T11:15:31.417Z,16.90
2019-05-09T11:18:00.921Z,16.80
2019-05-09T11:20:30.680Z,16.90
2019-05-09T11:23:00.183Z,16.90
2019-05-09T11:25:29.694Z,16.80
2019-05-09T11:28:10.038Z,16.80
2019-05-09T11:30:30.427Z,16.60
2019-05-09T11:32:59.978Z,16.60
2019-05-09T11:35:29.491Z,16.70
2019-05-09T11:37:59.464Z,16.80
2019-05-09T11:40:28.990Z,16.80
2019-05-09T11:42:58.499Z,16.80
2019-05-09T11:45:28.263Z,16.80
2019-05-09T11:47:58.449Z,16.70
2019-05-09T11:50:28.184Z,16.60
2019-05-09T11:52:59.925Z,16.80
2019-05-09T11:55:35.648Z,16.80
2019-05-09T11:58:00.100Z,16.80
2019-05-09T12:00:29.633Z,16.70
2019-05-09T12:02:59.135Z,16.70
2019-05-09T12:05:28.989Z,16.70
2019-05-09T12:07:58.524Z,16.90
2019-05-09T12:10:28.716Z,16.90
2019-05-09T12:13:02.728Z,16.90
2019-05-09T12:15:32.326Z,16.90
2019-05-09T12:18:05.605Z,17.00
2019-05-09T12:20:33.226Z,17.00
2019-05-09T12:23:02.741Z,17.00
2019-05-09T12:25:32.315Z,17.00
2019-05-09T12:28:01.896Z,17.10
2019-05-09T12:30:31.407Z,16.90
2019-05-09T12:33:00.941Z,16.80
2019-05-09T12:35:30.450Z,17.00
2019-05-09T12:38:00.071Z,17.20
2019-05-09T12:40:29.989Z,17.30
2019-05-09T12:42:59.472Z,17.40
2019-05-09T12:45:29.202Z,17.40
2019-05-09T12:48:07.408Z,17.30
2019-05-09T12:50:30.001Z,17.30
2019-05-09T12:52:59.555Z,17.20
2019-05-09T12:55:29.030Z,17.30
2019-05-09T12:57:59.508Z,17.10
2019-05-09T13:00:29.196Z,17.20
2019-05-09T13:02:59.463Z,17.20
2019-05-09T13:05:29.303Z,17.20
2019-05-09T13:07:58.923Z,17.30
2019-05-09T13:10:28.477Z,17.40
2019-05-09T13:12:57.970Z,17.50
2019-05-09T13:15:31.159Z,17.40
2019-05-09T13:18:00.227Z,17.50
2019-05-09T13:20:29.751Z,17.50
2019-05-09T13:23:00.422Z,17.40
2019-05-09T13:25:30.256Z,17.50
2019-05-09T13:28:00.107Z,17.70
2019-05-09T13:30:29.685Z,17.40
2019-05-09T13:32:59.142Z,17.40
2019-05-09T13:35:28.644Z,17.40
2019-05-09T13:37:59.657Z,17.40
2019-05-09T13:40:29.415Z,17.50
2019-05-09T13:42:58.883Z,17.60
2019-05-09T13:45:28.707Z,17.60
2019-05-09T13:47:58.434Z,17.50
2019-05-09T13:50:28.339Z,17.50
2019-05-09T13:52:58.271Z,17.70
2019-05-09T13:55:27.896Z,17.60
2019-05-09T13:57:59.250Z,17.60
2019-05-09T14:00:28.821Z,17.60
2019-05-09T14:02:58.687Z,17.70
2019-05-09T14:05:29.117Z,17.80
2019-05-09T14:08:03.311Z,17.70
2019-05-09T14:10:30.367Z,17.70
2019-05-09T14:13:08.917Z,17.60
2019-05-09T14:15:31.984Z,17.60
2019-05-09T14:18:01.559Z,17.60
2019-05-09T14:20:31.183Z,17.60
2019-05-09T14:23:00.727Z,17.50
2019-05-09T14:25:30.196Z,17.60
2019-05-09T14:27:59.665Z,17.70
2019-05-09T14:30:29.283Z,17.70
2019-05-09T14:33:00.288Z,17.70
2019-05-09T14:35:33.811Z,17.80
2019-05-09T14:38:03.581Z,17.60
2019-05-09T14:40:33.213Z,17.60
2019-05-09T14:43:02.684Z,17.60
2019-05-09T14:45:32.405Z,17.80
2019-05-09T14:48:02.162Z,17.80
2019-05-09T14:50:31.771Z,17.70
2019-05-09T14:53:01.407Z,17.50
2019-05-09T14:55:30.811Z,17.70
2019-05-09T14:58:01.452Z,17.70
2019-05-09T15:00:31.023Z,17.90
2019-05-09T15:03:00.664Z,17.90
2019-05-09T15:05:30.214Z,17.90
2019-05-09T15:07:59.871Z,17.90
2019-05-09T15:10:29.440Z,17.80
2019-05-09T15:13:07.774Z,17.80
2019-05-09T15:15:38.089Z,18.00
2019-05-09T15:18:08.328Z,18.00
2019-05-09T15:20:38.137Z,17.90
2019-05-09T15:23:08.637Z,17.80
2019-05-09T15:25:39.307Z,17.80
2019-05-09T15:28:09.003Z,17.80
2019-05-09T15:30:38.711Z,17.80
2019-05-09T15:33:09.003Z,17.90
2019-05-09T15:35:39.249Z,17.80
2019-05-09T15:38:08.864Z,17.80
2019-05-09T15:40:38.757Z,17.70
2019-05-09T15:43:08.456Z,17.60
2019-05-09T15:45:42.810Z,17.60
2019-05-09T15:48:12.391Z,17.60
2019-05-09T15:50:41.827Z,17.70
2019-05-09T15:53:11.547Z,17.70
2019-05-09T15:55:40.992Z,17.60
2019-05-09T15:58:10.654Z,17.70
2019-05-09T16:00:40.236Z,17.70
2019-05-09T16:03:10.890Z,17.80
2019-05-09T16:05:40.413Z,17.70
2019-05-09T16:08:11.530Z,17.60
2019-05-09T16:10:41.313Z,17.50
2019-05-09T16:13:17.761Z,17.40
2019-05-09T16:15:48.664Z,17.50
2019-05-09T16:18:18.686Z,17.60
2019-05-09T16:20:48.790Z,17.50
2019-05-09T16:23:18.582Z,17.50
2019-05-09T16:25:48.211Z,17.50
2019-05-09T16:28:18.533Z,17.50
2019-05-09T16:30:48.408Z,17.50
2019-05-09T16:33:18.379Z,17.50
2019-05-09T16:35:48.448Z,17.50
2019-05-09T16:38:19.198Z,17.40
2019-05-09T16:40:48.830Z,17.40
2019-05-09T16:43:18.336Z,17.30
2019-05-09T16:45:48.283Z,17.40
2019-05-09T16:48:18.632Z,17.40
2019-05-09T16:51:00.695Z,17.70
2019-05-09T16:53:19.771Z,17.70
2019-05-09T16:55:49.287Z,17.50
2019-05-09T16:58:19.045Z,17.40
2019-05-09T17:00:53.171Z,17.40
2019-05-09T17:03:22.863Z,17.30
2019-05-09T17:05:52.577Z,17.30
2019-05-09T17:08:22.203Z,17.30
2019-05-09T17:10:51.803Z,17.30
2019-05-09T17:13:21.392Z,17.30
2019-05-09T17:15:50.880Z,17.20
2019-05-09T17:18:20.504Z,17.30
2019-05-09T17:21:15.157Z,17.30
2019-05-09T17:23:32.163Z,17.20
2019-05-09T17:26:01.859Z,17.10
2019-05-09T17:28:31.461Z,17.10
2019-05-09T17:31:01.209Z,17.00
2019-05-09T17:33:30.863Z,16.90
2019-05-09T17:36:00.399Z,16.90
2019-05-09T17:38:30.083Z,16.80
2019-05-09T17:40:59.663Z,16.70
2019-05-09T17:43:29.206Z,16.70
2019-05-09T17:45:58.799Z,16.60
2019-05-09T17:48:28.794Z,16.50
2019-05-09T17:50:58.650Z,16.40
2019-05-09T17:53:31.268Z,16.50
2019-05-09T17:55:59.527Z,16.40
2019-05-09T17:58:33.034Z,16.30
2019-05-09T18:01:00.384Z,16.20
2019-05-09T18:03:29.933Z,16.10
2019-05-09T18:05:59.551Z,16.10
2019-05-09T18:08:29.061Z,16.10
2019-05-09T18:10:58.626Z,15.90
2019-05-09T18:13:31.378Z,15.70
2019-05-09T18:16:00.587Z,15.70
2019-05-09T18:18:30.163Z,15.60
2019-05-09T18:20:59.928Z,15.50
2019-05-09T18:23:29.443Z,15.50
2019-05-09T18:25:59.067Z,15.50
2019-05-09T18:28:29.272Z,15.40
2019-05-09T18:30:59.140Z,15.40
2019-05-09T18:33:33.262Z,15.20
2019-05-09T18:36:03.211Z,15.20
2019-05-09T18:38:34.421Z,15.20
2019-05-09T18:41:07.037Z,15.30
2019-05-09T18:43:35.335Z,15.30
2019-05-09T18:46:05.120Z,15.20
2019-05-09T18:48:34.751Z,15.20
2019-05-09T18:51:04.509Z,15.20
2019-05-09T18:53:34.087Z,15.20
2019-05-09T18:56:03.709Z,15.20
2019-05-09T18:58:35.995Z,15.10
2019-05-09T19:01:04.942Z,15.10
2019-05-09T19:03:34.577Z,15.10
2019-05-09T19:06:04.230Z,15.00
2019-05-09T19:08:33.761Z,15.00
2019-05-09T19:11:03.812Z,15.00
2019-05-09T19:13:33.550Z,14.90
2019-05-09T19:16:08.003Z,15.00
2019-05-09T19:18:42.204Z,14.90
2019-05-09T19:21:14.559Z,14.80
2019-05-09T19:23:44.081Z,14.70
2019-05-09T19:26:31.936Z,14.50
2019-05-09T19:29:01.516Z,14.40
2019-05-09T19:31:31.172Z,14.40
2019-05-09T19:34:00.863Z,14.50
2019-05-09T19:36:30.578Z,14.60
2019-05-09T19:39:00.769Z,14.60
2019-05-09T19:41:32.162Z,14.60
2019-05-09T19:44:03.408Z,14.60
2019-05-09T19:46:33.295Z,14.80
2019-05-09T19:49:03.314Z,14.50
2019-05-09T19:51:32.971Z,14.50
2019-05-09T19:54:02.868Z,14.60
2019-05-09T19:56:32.524Z,14.60
2019-05-09T19:59:02.071Z,14.60
2019-05-09T20:01:31.613Z,14.60
2019-05-09T20:04:01.171Z,14.40
2019-05-09T20:06:30.830Z,14.40
2019-05-09T20:09:00.480Z,14.50
2019-05-09T20:11:36.255Z,14.50
2019-05-09T20:14:07.547Z,14.40
2019-05-09T20:16:44.446Z,14.50
2019-05-09T20:19:14.029Z,14.50
2019-05-09T20:21:43.653Z,14.50
2019-05-09T20:24:14.629Z,14.50
2019-05-09T20:26:44.242Z,14.50
2019-05-09T20:29:13.947Z,14.40
2019-05-09T20:31:43.582Z,14.30
2019-05-09T20:34:13.268Z,14.30
2019-05-09T20:36:42.960Z,14.40
2019-05-09T20:39:12.837Z,14.40
2019-05-09T20:41:42.566Z,14.30
2019-05-09T20:44:12.411Z,14.40
2019-05-09T20:46:42.330Z,14.40
2019-05-09T20:49:12.053Z,14.40
2019-05-09T20:51:41.885Z,14.30
2019-05-09T20:54:20.618Z,14.30
2019-05-09T20:56:43.179Z,14.30
2019-05-09T20:59:12.958Z,14.20
2019-05-09T21:01:42.764Z,14.20
2019-05-09T21:04:12.665Z,14.20
2019-05-09T21:06:42.406Z,14.20
2019-05-09T21:09:12.135Z,14.20
2019-05-09T21:11:42.029Z,14.10
2019-05-09T21:14:11.855Z,14.20
2019-05-09T21:16:41.556Z,14.30
2019-05-09T21:19:11.478Z,14.20
2019-05-09T21:21:41.207Z,14.10
2019-05-09T21:24:11.107Z,14.00
2019-05-09T21:26:41.066Z,14.00
2019-05-09T21:29:10.890Z,13.90
2019-05-09T21:31:40.794Z,13.90
2019-05-09T21:34:10.487Z,13.90
2019-05-09T21:36:40.140Z,14.00
2019-05-09T21:39:09.731Z,14.00
2019-05-09T21:41:39.388Z,14.10
2019-05-09T21:44:08.994Z,14.20
2019-05-09T21:46:38.947Z,14.20
2019-05-09T21:49:08.779Z,14.20
2019-05-09T21:51:38.298Z,14.30
2019-05-09T21:54:07.849Z,14.30
2019-05-09T21:56:37.643Z,14.30
2019-05-09T21:59:07.188Z,14.30
2019-05-09T22:01:37.289Z,14.30
2019-05-09T22:04:07.145Z,14.20
2019-05-09T22:06:36.838Z,14.20
2019-05-09T22:09:09.499Z,14.10
2019-05-09T22:11:39.587Z,14.00
2019-05-09T22:14:09.163Z,14.00
2019-05-09T22:16:38.852Z,14.00
2019-05-09T22:19:08.437Z,14.10
2019-05-09T22:21:37.981Z,14.10
2019-05-09T22:24:07.502Z,14.20
2019-05-09T22:26:37.215Z,14.10
2019-05-09T22:29:06.801Z,14.20
2019-05-09T22:31:36.483Z,14.10
2019-05-09T22:34:06.115Z,14.10
2019-05-09T22:36:35.727Z,14.10
2019-05-09T22:39:07.265Z,14.20
2019-05-09T22:41:37.026Z,14.00
2019-05-09T22:44:06.639Z,14.00
2019-05-09T22:46:36.327Z,13.90
2019-05-09T22:49:05.835Z,14.00
2019-05-09T22:51:35.460Z,13.90
2019-05-09T22:54:12.632Z,14.00
2019-05-09T22:56:36.819Z,14.00
2019-05-09T22:59:06.435Z,13.90
2019-05-09T23:01:36.023Z,14.00
2019-05-09T23:04:05.711Z,14.00
2019-05-09T23:06:35.256Z,14.00
2019-05-09T23:09:06.846Z,13.90
2019-05-09T23:11:36.459Z,13.90
2019-05-09T23:14:06.096Z,14.00
2019-05-09T23:16:37.354Z,13.90
2019-05-09T23:19:06.943Z,13.80
2019-05-09T23:21:36.495Z,13.90
2019-05-09T23:24:08.689Z,13.90
2019-05-09T23:26:38.323Z,13.80
2019-05-09T23:29:07.916Z,13.70
2019-05-09T23:31:39.179Z,13.70
2019-05-09T23:34:08.759Z,13.80
2019-05-09T23:36:38.376Z,13.70
2019-05-09T23:39:12.321Z,13.70
2019-05-09T23:41:41.948Z,13.70
2019-05-09T23:44:11.458Z,13.70
2019-05-09T23:46:40.936Z,13.70
2019-05-09T23:49:10.546Z,13.60
2019-05-09T23:51:46.468Z,13.70
2019-05-09T23:54:47.594Z,13.60
2019-05-09T23:57:28.289Z,13.50
